createdAt,value
2017-06-03T00:02:14.380Z,6.46
2017-06-03T00:04:41.119Z,6.66
2017-06-03T00:07:07.838Z,6.78
2017-06-03T00:09:34.613Z,6.48
2017-06-03T00:12:01.344Z,5.92
2017-06-03T00:14:28.075Z,6.00
2017-06-03T00:16:54.835Z,5.78
2017-06-03T00:19:21.556Z,6.60
2017-06-03T00:21:48.285Z,5.84
2017-06-03T00:24:15.024Z,6.92
2017-06-03T00:26:41.755Z,6.36
2017-06-03T00:29:08.481Z,6.46
2017-06-03T00:31:35.209Z,6.22
2017-06-03T00:34:01.944Z,5.98
2017-06-03T00:36:28.674Z,6.40
2017-06-03T00:38:55.440Z,6.42
2017-06-03T00:41:22.159Z,7.46
2017-06-03T00:43:48.960Z,7.02
2017-06-03T00:46:15.679Z,6.96
2017-06-03T00:48:42.391Z,6.58
2017-06-03T00:51:09.129Z,6.70
2017-06-03T00:53:35.850Z,6.74
2017-06-03T00:56:02.601Z,7.06
2017-06-03T00:58:29.328Z,6.66
2017-06-03T01:00:56.041Z,7.08
2017-06-03T01:03:22.760Z,7.14
2017-06-03T01:05:49.479Z,7.18
2017-06-03T01:08:16.201Z,6.62
2017-06-03T01:10:42.975Z,7.66
2017-06-03T01:13:09.693Z,7.32
2017-06-03T01:15:36.421Z,7.50
2017-06-03T01:18:03.135Z,7.68
2017-06-03T01:20:29.854Z,7.24
2017-06-03T01:22:56.583Z,6.84
2017-06-03T01:25:23.309Z,8.34
2017-06-03T01:27:50.033Z,7.10
2017-06-03T01:30:16.774Z,7.02
2017-06-03T01:32:43.501Z,7.70
2017-06-03T01:35:10.241Z,7.90
2017-06-03T01:37:37.007Z,8.70
2017-06-03T01:40:03.728Z,7.52
2017-06-03T01:42:30.458Z,7.42
2017-06-03T01:44:57.178Z,8.10
2017-06-03T01:47:23.908Z,8.12
2017-06-03T01:49:50.676Z,7.90
2017-06-03T01:52:17.414Z,8.66
2017-06-03T01:54:44.138Z,7.82
2017-06-03T01:57:10.860Z,8.12
2017-06-03T01:59:37.574Z,8.90
2017-06-03T02:02:04.317Z,8.66
2017-06-03T02:04:31.045Z,9.08
2017-06-03T02:06:57.783Z,7.66
2017-06-03T02:09:24.505Z,8.70
2017-06-03T02:11:51.243Z,7.76
2017-06-03T02:14:18.043Z,7.92
2017-06-03T02:16:44.769Z,7.80
2017-06-03T02:19:11.493Z,9.02
2017-06-03T02:21:38.234Z,7.40
2017-06-03T02:24:04.991Z,7.80
2017-06-03T02:26:31.728Z,7.06
2017-06-03T02:28:58.509Z,8.98
2017-06-03T02:31:25.225Z,8.16
2017-06-03T02:33:51.949Z,8.20
2017-06-03T02:36:18.726Z,8.72
2017-06-03T02:38:45.452Z,8.20
2017-06-03T02:41:12.174Z,8.50
2017-06-03T02:43:38.941Z,9.34
2017-06-03T02:46:05.656Z,9.24
2017-06-03T02:48:32.380Z,9.02
2017-06-03T02:51:41.716Z,7.90
2017-06-03T02:54:08.484Z,9.20
2017-06-03T02:56:35.197Z,8.20
2017-06-03T02:59:01.950Z,9.10
2017-06-03T03:01:28.666Z,9.50
2017-06-03T03:03:55.396Z,9.63
2017-06-03T03:06:22.126Z,9.57
2017-06-03T03:08:48.840Z,8.50
2017-06-03T03:13:55.275Z,8.90
2017-06-03T03:16:21.984Z,8.50
2017-06-03T03:18:48.699Z,8.60
2017-06-03T03:21:15.455Z,9.30
2017-06-03T03:23:42.179Z,8.93
2017-06-03T03:26:08.903Z,9.37
2017-06-03T03:28:35.626Z,8.77
2017-06-03T03:31:02.358Z,8.90
2017-06-03T03:33:29.078Z,9.17
2017-06-03T03:35:55.830Z,9.17
2017-06-03T03:38:22.552Z,8.60
2017-06-03T03:40:49.275Z,9.73
2017-06-03T03:43:15.996Z,9.33
2017-06-03T03:45:42.709Z,9.47
2017-06-03T03:48:09.426Z,9.50
2017-06-03T03:50:36.177Z,9.70
2017-06-03T03:53:02.948Z,10.43
2017-06-03T03:55:29.698Z,10.50
2017-06-03T03:57:56.429Z,10.87
2017-06-03T04:00:23.146Z,11.10
2017-06-03T04:02:49.866Z,11.77
2017-06-03T04:05:16.632Z,11.90
2017-06-03T04:07:43.340Z,11.73
2017-06-03T04:10:10.076Z,12.27
2017-06-03T04:12:36.809Z,11.77
2017-06-03T04:15:03.569Z,10.80
2017-06-03T04:17:30.289Z,11.27
2017-06-03T04:19:57.013Z,10.60
2017-06-03T04:22:23.764Z,10.90
2017-06-03T04:24:50.477Z,10.40
2017-06-03T04:27:17.224Z,11.27
2017-06-03T04:29:43.954Z,11.93
2017-06-03T04:32:10.677Z,12.57
2017-06-03T04:34:37.406Z,11.60
2017-06-03T04:37:04.196Z,12.27
2017-06-03T04:39:30.918Z,11.90
2017-06-03T04:41:57.645Z,12.30
2017-06-03T04:44:24.393Z,11.60
2017-06-03T04:46:51.116Z,10.90
2017-06-03T04:49:17.860Z,11.43
2017-06-03T04:51:44.607Z,12.57
2017-06-03T04:54:11.329Z,12.60
2017-06-03T04:56:38.101Z,12.23
2017-06-03T04:59:04.861Z,13.73
2017-06-03T05:01:31.587Z,12.83
2017-06-03T05:03:58.309Z,12.10
2017-06-03T05:06:25.030Z,12.07
2017-06-03T05:08:51.747Z,13.00
2017-06-03T05:11:18.510Z,12.00
2017-06-03T05:13:45.239Z,12.13
2017-06-03T05:16:11.965Z,13.10
2017-06-03T05:18:38.689Z,13.47
2017-06-03T05:21:05.441Z,12.40
2017-06-03T05:23:32.168Z,14.00
2017-06-03T05:25:58.927Z,14.60
2017-06-03T05:28:25.648Z,13.27
2017-06-03T05:30:52.361Z,13.53
2017-06-03T05:33:19.080Z,14.90
2017-06-03T05:35:45.798Z,14.20
2017-06-03T05:38:12.543Z,13.90
2017-06-03T05:40:39.265Z,13.00
2017-06-03T05:43:05.979Z,14.03
2017-06-03T05:45:32.692Z,14.00
2017-06-03T05:47:59.416Z,12.07
2017-06-03T05:50:26.123Z,13.73
2017-06-03T05:52:52.833Z,14.50
2017-06-03T05:55:19.598Z,14.10
2017-06-03T05:57:46.352Z,13.20
2017-06-03T06:00:13.070Z,12.97
2017-06-03T06:02:39.815Z,12.70
2017-06-03T06:05:06.541Z,12.93
2017-06-03T06:07:33.266Z,14.33
2017-06-03T06:09:59.996Z,14.70
2017-06-03T06:12:26.743Z,12.20
2017-06-03T06:14:53.460Z,13.17
2017-06-03T06:17:20.188Z,13.80
2017-06-03T06:19:46.908Z,14.20
2017-06-03T06:22:13.633Z,14.37
2017-06-03T06:24:40.353Z,12.27
2017-06-03T06:27:07.075Z,13.97
2017-06-03T06:29:33.789Z,13.30
2017-06-03T06:32:00.521Z,11.60
2017-06-03T06:34:27.248Z,11.87
2017-06-03T06:36:53.982Z,12.40
2017-06-03T06:39:20.703Z,12.13
2017-06-03T06:41:47.426Z,13.43
2017-06-03T06:44:14.140Z,13.17
2017-06-03T06:46:40.866Z,12.40
2017-06-03T06:49:07.585Z,13.40
2017-06-03T06:51:34.306Z,12.27
2017-06-03T06:54:01.070Z,12.20
2017-06-03T06:56:27.802Z,12.10
2017-06-03T06:58:54.510Z,7.70
2017-06-03T07:01:21.232Z,11.17
2017-06-03T07:03:47.963Z,12.87
2017-06-03T07:06:14.692Z,11.23
2017-06-03T07:08:41.417Z,10.77
2017-06-03T07:11:08.141Z,12.97
2017-06-03T07:13:34.883Z,11.60
2017-06-03T07:16:01.613Z,12.00
2017-06-03T07:18:28.339Z,11.93
2017-06-03T07:20:55.063Z,11.20
2017-06-03T07:23:21.783Z,13.03
2017-06-03T07:25:48.504Z,10.97
2017-06-03T07:28:15.234Z,12.77
2017-06-03T07:30:42.025Z,12.10
2017-06-03T07:33:08.742Z,11.67
2017-06-03T07:35:35.584Z,12.63
2017-06-03T07:38:02.334Z,11.00
2017-06-03T07:40:29.051Z,11.20
2017-06-03T07:42:55.783Z,12.27
2017-06-03T07:45:22.514Z,11.80
2017-06-03T07:47:49.245Z,11.23
2017-06-03T07:50:16.138Z,13.47
2017-06-03T07:52:42.878Z,11.50
2017-06-03T07:55:09.809Z,13.00
2017-06-03T07:57:36.540Z,12.53
2017-06-03T08:00:03.270Z,10.70
2017-06-03T08:02:30.006Z,11.90
2017-06-03T08:04:56.748Z,12.00
2017-06-03T08:07:23.522Z,12.13
2017-06-03T08:09:50.240Z,12.17
2017-06-03T08:12:16.964Z,12.10
2017-06-03T08:14:43.706Z,11.20
2017-06-03T08:17:10.418Z,12.17
2017-06-03T08:19:37.142Z,11.47
2017-06-03T08:22:03.877Z,11.40
2017-06-03T08:24:30.628Z,12.63
2017-06-03T08:26:57.344Z,12.10
2017-06-03T08:29:24.234Z,11.40
2017-06-03T08:31:50.969Z,12.27
2017-06-03T08:34:17.695Z,10.60
2017-06-03T08:36:44.868Z,11.37
2017-06-03T08:39:11.878Z,12.33
2017-06-03T08:41:38.602Z,12.70
2017-06-03T08:44:05.626Z,12.57
2017-06-03T08:46:32.499Z,12.60
2017-06-03T08:48:59.302Z,13.30
2017-06-03T08:51:26.038Z,12.10
2017-06-03T08:53:52.761Z,13.37
2017-06-03T08:56:19.486Z,14.37
2017-06-03T08:58:46.214Z,12.73
2017-06-03T09:01:12.932Z,11.60
2017-06-03T09:03:39.652Z,12.63
2017-06-03T09:06:06.515Z,12.70
2017-06-03T09:08:33.237Z,14.20
2017-06-03T09:11:00.176Z,13.17
2017-06-03T09:13:27.134Z,12.67
2017-06-03T09:15:53.849Z,13.00
2017-06-03T09:18:20.574Z,11.73
2017-06-03T09:20:47.294Z,12.03
2017-06-03T09:23:14.033Z,12.83
2017-06-03T09:25:40.803Z,13.73
2017-06-03T09:28:07.593Z,13.93
2017-06-03T09:30:34.315Z,12.83
